Orofino, ID

10:12 AM PST on February 28, 2017 (GMT -0800)
MD3277 | | Change Station
Active Advisory: Winter Weather Advisory

Elev 1046 ft 46.48 °N, 116.27 °W | Updated 17 minutes ago

Overcast
Overcast
35.0 °F
Feels Like 35 °F
N
0.0
Wind Variable Wind from East

Today
High -- | Low -- °F
--% Chance of Precip.
Yesterday
High -- | Low -- °F
Precip. -- in
Pressure 29.97 in
Visibility 10.0 miles
Clouds Scattered Clouds 2700 ft
Overcast 3500 ft
Windchill 35 °F
Dew Point 33 °F
Humidity 94%
Rainfall 0.03 in
Snow Depth Not available.
6:25 AM 5:30 PM
Waxing Crescent, 6% visible
METAR KLWS 281756Z 34009KT 10SM SCT027 OVC035 02/M03 A2993 RMK AO2 SLP148 60001 T00221028 10022 20000 51042
Pressure 29.97 in
Visibility 10.0 miles
Clouds Scattered Clouds 2700 ft
Overcast 3500 ft
Windchill 35 °F
Dew Point 33 °F
Humidity 94%
Rainfall 0.03 in
Snow Depth Not available.
6:25 AM 5:30 PM
Waxing Crescent, 6% visible
METAR KLWS 281756Z 34009KT 10SM SCT027 OVC035 02/M03 A2993 RMK AO2 SLP148 60001 T00221028 10022 20000 51042

Get Your Daily Forecast Email!

Thanks for signing up!

Be on the lookout for a verification email in your inbox.

You'll start receiving the daily forecast at 8 AM.

×

10-Day Weather Forecast

Almanac

Astronomy

Feb. 28, 2017 Rise Set
Actual Time
Civil Twilight
Nautical Twilight
Astronomical Twilight
Moon
Length of Visible Light
Length of Day
Tomorrow will be .
, % of the Moon is Illuminated

Today's Extremes

State Highs State Lows

Community

WunderPhotos

Upload Photos

1,962,540 photos uploaded!

WunderBlog® & News

Nearby

Air Quality

  Air Quality AQ Index Pollutant
Not available.

Snow Depth

Station Depth Elevation

Earthquake Activity

City Distance Mag. Time & Date
Minimum magnitude displayed is 2.5.

Coastal Water Temperatures

Place Temperature

Stations

Nearby Weather Stations

Station Location Temp. Windchill Dew Point Humidity Wind Precip. Elev Updated Type
                   

Watches & Warnings

Winter Weather Advisory
Issued: 4:49 AM PST Feb. 28, 2017 – National Weather Service

... Winter Weather Advisory remains in effect until 11 am PST this
morning...

* impacts/timing: snow showers will continue through the morning
causing rapidly changing conditions and slick roads.

* Snow accumulations: generally 2 to 4 inches with up to 6
inches possible on the benches and higher terrain throughout
the area, including White Bird pass and Greer grade.

* Locations impacted include: Camas Prairie, Grangeville and
vicinity, Greer grade, Highway 95 Slate Creek to Riggins, and
White Bird grade